Time;durP1;ratioP1;P1;durP2;ratioP2;P2;SDS_P1;SDS_P2;PMS_P1;PMS_P2;Temp;Humidity;BMP_temperature;BMP_pressure;BME280_temperature;BME280_humidity;BME280_pressure;Samples;Min_cycle;Max_cycle;Signal;HPM_P1;HPM_P2
2022/03/29 00:00:36;;;;;;;6.40;3.65;;;15.00;39.40;;;;;;5052388;28;20161;-32
2022/03/29 00:03:06;;;;;;;12.40;3.45;;;15.00;39.30;;;;;;5047506;28;20173;-32
2022/03/29 00:05:32;;;;;;;7.82;4.45;;;15.00;39.70;;;;;;5049108;28;20180;-32
2022/03/29 00:07:59;;;;;;;6.05;3.30;;;14.90;39.70;;;;;;5053002;28;20278;-32
2022/03/29 00:10:25;;;;;;;5.13;3.30;;;14.80;39.70;;;;;;5052411;28;20653;-31
2022/03/29 00:12:53;;;;;;;7.30;4.50;;;14.80;39.30;;;;;;5052556;28;20572;-31
2022/03/29 00:15:22;;;;;;;7.22;3.55;;;14.80;38.80;;;;;;5052959;28;20179;-31
2022/03/29 00:17:48;;;;;;;6.95;4.43;;;14.70;39.00;;;;;;5053025;28;20184;-31
2022/03/29 00:20:19;;;;;;;6.97;3.80;;;14.70;38.40;;;;;;5052542;28;20169;-31
2022/03/29 00:22:47;;;;;;;7.95;3.97;;;14.70;38.30;;;;;;5053124;28;20783;-31
2022/03/29 00:25:14;;;;;;;7.72;4.00;;;14.60;38.10;;;;;;5053017;28;20169;-31
2022/03/29 00:27:40;;;;;;;9.27;4.75;;;14.60;38.40;;;;;;5052456;28;20217;-31
2022/03/29 00:30:11;;;;;;;7.25;5.50;;;14.50;38.30;;;;;;5052240;28;20722;-31
2022/03/29 00:32:39;;;;;;;7.82;3.42;;;14.50;39.00;;;;;;5052186;28;20545;-32
2022/03/29 00:35:06;;;;;;;8.85;3.70;;;14.50;38.70;;;;;;5047788;28;20260;-31
2022/03/29 00:37:32;;;;;;;5.32;3.80;;;14.40;38.70;;;;;;5048849;28;20192;-31
2022/03/29 00:39:58;;;;;;;8.13;3.28;;;14.40;38.40;;;;;;5052083;28;20196;-31
2022/03/29 00:42:23;;;;;;;5.93;3.53;;;14.30;38.30;;;;;;5052254;28;20177;-31
2022/03/29 00:44:49;;;;;;;4.90;3.37;;;14.30;38.40;;;;;;5052242;28;20173;-31
2022/03/29 00:47:15;;;;;;;6.67;3.80;;;14.30;38.50;;;;;;5052123;28;20434;-31
2022/03/29 00:49:41;;;;;;;4.23;2.83;;;14.20;38.30;;;;;;5052188;28;20177;-31
2022/03/29 00:52:08;;;;;;;6.87;2.80;;;14.20;38.40;;;;;;5052069;28;20706;-31
2022/03/29 00:54:36;;;;;;;6.28;4.32;;;14.10;38.70;;;;;;5052123;28;20408;-31
2022/03/29 00:57:03;;;;;;;4.93;3.28;;;14.10;39.00;;;;;;5052030;28;20189;-31
2022/03/29 00:59:30;;;;;;;9.15;3.70;;;14.00;38.90;;;;;;5050722;28;20169;-31
2022/03/29 01:02:00;;;;;;;3.75;2.55;;;14.00;38.70;;;;;;5042086;28;20301;-31
2022/03/29 01:04:26;;;;;;;11.85;3.67;;;14.00;38.80;;;;;;5052474;28;20566;-31
2022/03/29 01:06:57;;;;;;;7.47;3.88;;;14.00;38.90;;;;;;5052360;28;20186;-31
2022/03/29 01:09:23;;;;;;;5.07;3.25;;;13.90;39.10;;;;;;5052562;28;20166;-31
2022/03/29 01:11:49;;;;;;;6.20;3.55;;;13.90;39.10;;;;;;5052526;28;20246;-31
2022/03/29 01:14:16;;;;;;;5.63;3.20;;;13.80;38.90;;;;;;5052309;28;20169;-34
2022/03/29 01:19:27;;;;;;;4.70;3.40;;;13.80;39.00;;;;;;5051897;28;20164;-31
2022/03/29 01:22:05;;;;;;;7.00;3.65;;;13.70;39.60;;;;;;5051757;28;20688;-32
2022/03/29 01:24:34;;;;;;;5.63;2.60;;;13.70;39.10;;;;;;5051880;28;20185;-31
2022/03/29 01:27:02;;;;;;;5.55;3.42;;;13.70;39.60;;;;;;5051535;28;20220;-31
2022/03/29 01:29:32;;;;;;;5.22;3.70;;;13.70;39.80;;;;;;5051803;28;20243;-31
2022/03/29 01:32:01;;;;;;;4.43;2.78;;;13.60;39.60;;;;;;5051695;28;20250;-31
2022/03/29 01:34:28;;;;;;;6.22;3.20;;;13.60;39.50;;;;;;5051696;28;20169;-31
2022/03/29 01:36:54;;;;;;;4.72;3.67;;;13.60;39.30;;;;;;5051881;28;20189;-31
2022/03/29 01:39:20;;;;;;;6.35;4.45;;;13.60;39.20;;;;;;5051536;28;20529;-31
2022/03/29 01:41:47;;;;;;;6.50;3.47;;;13.60;39.60;;;;;;5051735;28;20177;-31
2022/03/29 01:44:13;;;;;;;7.05;3.97;;;13.60;40.00;;;;;;5051843;28;20407;-31
2022/03/29 01:46:39;;;;;;;8.98;3.92;;;13.50;39.60;;;;;;5051570;28;20215;-34
2022/03/29 01:49:06;;;;;;;7.93;4.80;;;13.50;39.70;;;;;;5051347;28;20783;-34
2022/03/29 01:51:32;;;;;;;8.27;4.15;;;13.50;39.40;;;;;;5051884;28;20420;-34
2022/03/29 01:53:59;;;;;;;8.95;3.33;;;13.50;39.80;;;;;;5051970;28;20184;-33
2022/03/29 01:56:31;;;;;;;9.63;4.00;;;13.50;39.80;;;;;;5052203;28;20185;-34
2022/03/29 01:58:57;;;;;;;7.40;3.20;;;13.50;39.50;;;;;;5051221;28;20189;-34
2022/03/29 02:01:23;;;;;;;4.55;3.25;;;13.50;39.50;;;;;;5051412;28;20180;-32
2022/03/29 02:03:49;;;;;;;5.00;3.70;;;13.50;39.40;;;;;;5051728;28;20173;-31
2022/03/29 02:06:14;;;;;;;6.30;3.33;;;13.50;39.90;;;;;;5051264;28;20923;-31
2022/03/29 02:08:41;;;;;;;7.93;4.53;;;13.40;40.80;;;;;;5051158;28;20408;-31
2022/03/29 02:11:07;;;;;;;5.97;3.70;;;13.40;39.80;;;;;;5051669;28;20618;-31
2022/03/29 02:13:34;;;;;;;6.88;3.50;;;13.40;39.80;;;;;;5053369;28;20197;-31
2022/03/29 02:15:59;;;;;;;8.05;4.18;;;13.40;39.70;;;;;;5054873;28;20223;-31
2022/03/29 02:18:25;;;;;;;10.30;4.37;;;13.30;39.80;;;;;;5054885;28;20246;-31
2022/03/29 02:20:51;;;;;;;9.33;5.10;;;13.40;39.50;;;;;;5054572;28;20828;-31
2022/03/29 02:23:17;;;;;;;6.80;4.20;;;13.30;39.70;;;;;;5054757;28;20400;-31
2022/03/29 02:25:47;;;;;;;7.03;4.15;;;13.20;39.20;;;;;;5054770;28;20431;-31
2022/03/29 02:28:13;;;;;;;10.60;4.78;;;13.20;39.10;;;;;;5054987;28;20168;-31
2022/03/29 02:30:39;;;;;;;4.53;3.47;;;13.20;39.00;;;;;;5054444;28;20180;-31
2022/03/29 02:33:06;;;;;;;8.00;3.73;;;13.20;39.00;;;;;;5054476;28;20205;-31
2022/03/29 02:35:32;;;;;;;7.65;4.43;;;13.10;38.90;;;;;;5054470;28;20408;-31
2022/03/29 02:37:59;;;;;;;10.20;5.30;;;13.10;39.10;;;;;;5054479;28;20522;-31
2022/03/29 02:40:25;;;;;;;11.05;5.22;;;13.00;38.70;;;;;;5054441;28;20407;-31
2022/03/29 02:42:53;;;;;;;14.75;4.05;;;12.90;38.80;;;;;;5054332;28;20177;-31
2022/03/29 02:45:21;;;;;;;5.88;2.78;;;12.90;38.70;;;;;;5055049;28;20239;-31
2022/03/29 02:47:49;;;;;;;8.20;4.13;;;12.90;38.70;;;;;;5054799;28;20252;-31
2022/03/29 02:50:16;;;;;;;7.65;3.40;;;12.80;38.60;;;;;;5055035;28;20276;-31
2022/03/29 02:52:50;;;;;;;8.90;4.32;;;12.70;38.60;;;;;;5046308;28;20293;-31
2022/03/29 02:55:20;;;;;;;9.95;4.88;;;12.70;38.60;;;;;;5054762;28;20165;-31
2022/03/29 02:57:47;;;;;;;8.93;4.47;;;12.70;38.70;;;;;;5054055;28;20201;-31
2022/03/29 03:00:16;;;;;;;8.27;5.15;;;12.60;38.90;;;;;;5054289;28;20204;-31
2022/03/29 03:02:42;;;;;;;7.07;4.00;;;12.60;38.80;;;;;;5053985;28;20561;-31
2022/03/29 03:05:10;;;;;;;8.48;3.75;;;12.50;38.70;;;;;;5053919;28;20174;-34
2022/03/29 03:07:37;;;;;;;6.80;4.22;;;12.50;38.80;;;;;;5053792;28;20201;-34
2022/03/29 03:10:03;;;;;;;10.65;4.90;;;12.40;38.90;;;;;;5053707;28;20181;-34
2022/03/29 03:12:37;;;;;;;6.55;4.75;;;12.30;38.70;;;;;;5053827;28;20562;-33
2022/03/29 03:15:05;;;;;;;8.75;5.18;;;12.30;38.70;;;;;;5053775;28;20169;-34
2022/03/29 03:17:31;;;;;;;6.63;4.00;;;12.30;38.70;;;;;;5053732;28;20185;-34
2022/03/29 03:19:57;;;;;;;8.50;4.60;;;12.30;39.00;;;;;;5053500;28;20223;-34
2022/03/29 03:22:22;;;;;;;8.83;4.83;;;12.20;38.80;;;;;;5053571;28;20489;-34
2022/03/29 03:24:48;;;;;;;9.47;5.20;;;12.10;39.10;;;;;;5052729;28;20185;-34
2022/03/29 03:27:16;;;;;;;8.90;5.10;;;12.10;38.90;;;;;;5053373;28;20208;-34
2022/03/29 03:29:42;;;;;;;5.18;2.95;;;12.00;39.30;;;;;;5053189;28;20270;-34
2022/03/29 03:32:11;;;;;;;7.35;4.50;;;12.00;39.30;;;;;;5053367;28;20201;-34
2022/03/29 03:34:37;;;;;;;8.90;5.45;;;11.90;39.10;;;;;;5053480;28;20174;-34
2022/03/29 03:37:04;;;;;;;16.40;4.70;;;11.90;39.50;;;;;;5053546;28;20200;-34
2022/03/29 03:39:34;;;;;;;6.78;4.38;;;11.80;39.10;;;;;;5053092;28;20231;-34
2022/03/29 03:42:00;;;;;;;6.28;4.25;;;11.80;39.30;;;;;;5053302;28;20184;-34
2022/03/29 03:44:27;;;;;;;9.95;4.38;;;11.80;39.10;;;;;;5053090;28;20597;-34
2022/03/29 03:46:53;;;;;;;8.40;3.92;;;11.80;39.50;;;;;;5053402;28;20608;-34
2022/03/29 03:49:19;;;;;;;7.50;4.65;;;11.80;39.50;;;;;;5052936;28;20259;-34
2022/03/29 03:51:45;;;;;;;6.55;4.53;;;11.70;39.20;;;;;;5052998;28;20200;-34
2022/03/29 03:54:11;;;;;;;14.43;5.77;;;11.70;39.30;;;;;;5053040;28;20223;-34
2022/03/29 03:56:37;;;;;;;11.45;4.97;;;11.60;39.20;;;;;;5052892;28;20688;-34
2022/03/29 03:59:03;;;;;;;8.33;5.00;;;11.60;39.10;;;;;;5052740;28;20188;-34
2022/03/29 04:01:29;;;;;;;8.30;4.70;;;11.60;39.30;;;;;;5051464;28;20181;-34
2022/03/29 04:03:54;;;;;;;9.43;4.80;;;11.60;39.70;;;;;;5052580;28;20201;-31
2022/03/29 04:06:20;;;;;;;9.50;7.03;;;11.60;39.20;;;;;;5052922;28;20427;-31
2022/03/29 04:08:46;;;;;;;7.67;5.27;;;11.50;39.30;;;;;;5052573;28;20176;-34
2022/03/29 04:11:11;;;;;;;7.30;4.47;;;11.50;39.30;;;;;;5052719;28;20442;-34
2022/03/29 04:13:37;;;;;;;8.73;4.93;;;11.50;39.30;;;;;;5052506;28;20201;-33
2022/03/29 04:16:04;;;;;;;7.50;4.43;;;11.50;39.50;;;;;;5052743;28;20542;-33
2022/03/29 04:18:30;;;;;;;10.77;5.10;;;11.50;39.30;;;;;;5052547;28;20541;-34
2022/03/29 04:20:57;;;;;;;5.72;4.40;;;11.50;39.10;;;;;;5052379;28;20537;-34
2022/03/29 04:23:22;;;;;;;9.65;5.00;;;11.50;39.10;;;;;;5052498;28;20173;-34
2022/03/29 04:25:48;;;;;;;9.13;4.60;;;11.40;39.20;;;;;;5052315;28;20204;-34
2022/03/29 04:28:14;;;;;;;10.23;5.22;;;11.40;39.00;;;;;;5052593;28;20165;-33
2022/03/29 04:30:40;;;;;;;10.13;4.57;;;11.40;39.30;;;;;;5052128;28;20252;-33
2022/03/29 04:33:06;;;;;;;6.83;3.60;;;11.40;39.60;;;;;;5052280;28;20204;-34
2022/03/29 04:35:32;;;;;;;9.27;5.57;;;11.40;40.00;;;;;;5051981;28;20169;-34
2022/03/29 04:37:58;;;;;;;7.50;4.47;;;11.40;39.90;;;;;;5052362;28;20408;-34
2022/03/29 04:40:24;;;;;;;8.27;4.83;;;11.50;40.30;;;;;;5051894;28;20648;-34
2022/03/29 04:42:51;;;;;;;7.70;3.72;;;11.40;40.40;;;;;;5052222;28;20173;-34
2022/03/29 04:45:19;;;;;;;13.02;6.45;;;11.40;40.50;;;;;;5052454;28;20188;-34
2022/03/29 04:47:46;;;;;;;8.65;4.90;;;11.50;40.60;;;;;;5051952;28;20197;-33
2022/03/29 04:50:13;;;;;;;10.38;7.75;;;11.50;40.40;;;;;;5051724;28;20657;-33
2022/03/29 04:52:44;;;;;;;10.25;4.22;;;11.50;40.40;;;;;;5052215;28;20201;-34
2022/03/29 04:55:10;;;;;;;8.77;5.90;;;11.60;40.30;;;;;;5046515;28;20210;-33
2022/03/29 04:57:36;;;;;;;7.38;5.78;;;11.60;40.00;;;;;;5049451;28;20220;-31
2022/03/29 05:00:04;;;;;;;11.37;5.40;;;11.60;40.60;;;;;;5052004;28;20208;-31
2022/03/29 05:02:31;;;;;;;8.80;5.72;;;11.60;40.80;;;;;;5051960;28;20439;-31
2022/03/29 05:04:57;;;;;;;8.25;5.30;;;11.70;40.20;;;;;;5052157;28;20608;-31
2022/03/29 05:07:23;;;;;;;13.38;5.43;;;11.70;40.70;;;;;;5051843;28;20679;-31
2022/03/29 05:09:50;;;;;;;10.65;5.55;;;11.70;41.00;;;;;;5051812;28;20193;-34
2022/03/29 05:12:16;;;;;;;7.25;4.18;;;11.70;40.90;;;;;;5051842;28;20197;-34
2022/03/29 05:14:43;;;;;;;7.00;4.57;;;11.70;40.90;;;;;;5052007;28;20238;-34
2022/03/29 05:17:08;;;;;;;10.07;5.03;;;11.70;40.60;;;;;;5051905;28;20278;-33
2022/03/29 05:19:34;;;;;;;10.47;5.17;;;11.80;40.70;;;;;;5051463;28;20223;-34
2022/03/29 05:22:00;;;;;;;10.07;6.37;;;11.70;40.80;;;;;;5051804;28;20180;-34
2022/03/29 05:24:26;;;;;;;6.90;4.80;;;11.70;40.70;;;;;;5051759;28;20407;-34
2022/03/29 05:26:51;;;;;;;27.50;7.10;;;11.80;41.30;;;;;;5051522;28;20704;-33
2022/03/29 05:29:21;;;;;;;19.30;5.57;;;11.80;40.70;;;;;;5051526;28;20174;-33
2022/03/29 05:31:47;;;;;;;10.07;5.00;;;11.80;40.60;;;;;;5051567;28;20177;-34
2022/03/29 05:34:16;;;;;;;11.98;6.20;;;11.90;40.70;;;;;;5051600;28;20169;-34
2022/03/29 05:36:44;;;;;;;13.48;5.70;;;11.90;40.20;;;;;;5051746;28;20197;-33
2022/03/29 05:39:16;;;;;;;7.25;4.80;;;11.90;40.20;;;;;;5051658;28;20541;-31
2022/03/29 05:41:42;;;;;;;14.95;5.30;;;11.90;41.40;;;;;;5052143;28;20196;-34
2022/03/29 05:44:08;;;;;;;9.50;5.60;;;11.90;40.90;;;;;;5051601;28;20169;-34
2022/03/29 05:49:20;;;;;;;10.13;4.80;;;11.80;41.20;;;;;;5054891;28;20411;-34
2022/03/29 05:51:46;;;;;;;12.32;5.50;;;11.70;41.50;;;;;;5055234;28;20303;-34
2022/03/29 05:54:12;;;;;;;12.90;6.50;;;11.70;41.20;;;;;;5055289;28;20172;-34
2022/03/29 05:56:38;;;;;;;10.33;5.50;;;11.70;41.40;;;;;;5053834;28;20275;-34
2022/03/29 05:59:04;;;;;;;11.00;5.60;;;11.70;42.10;;;;;;5053599;28;20949;-31
2022/03/29 06:01:29;;;;;;;17.43;5.17;;;11.70;42.60;;;;;;5047159;28;20232;-31
2022/03/29 06:03:55;;;;;;;8.57;4.83;;;11.70;41.80;;;;;;5055342;28;20231;-31
2022/03/29 06:06:21;;;;;;;8.93;6.05;;;11.70;42.10;;;;;;5055213;28;20208;-32
2022/03/29 06:08:47;;;;;;;17.00;6.93;;;11.70;42.20;;;;;;5055244;28;20187;-31
2022/03/29 06:11:14;;;;;;;8.73;4.63;;;11.70;41.90;;;;;;5055388;28;20260;-31
2022/03/29 06:13:40;;;;;;;10.23;4.68;;;11.70;42.30;;;;;;5054824;28;20216;-31
2022/03/29 06:16:06;;;;;;;10.10;6.57;;;11.60;42.60;;;;;;5054786;28;20255;-31
2022/03/29 06:18:33;;;;;;;12.07;5.63;;;11.60;42.60;;;;;;5054828;28;20404;-31
2022/03/29 06:20:59;;;;;;;8.88;5.68;;;11.70;42.40;;;;;;5054798;28;20696;-32
2022/03/29 06:23:25;;;;;;;11.23;5.73;;;11.70;42.20;;;;;;5054061;28;20335;-34
2022/03/29 06:25:50;;;;;;;18.23;7.03;;;11.70;42.00;;;;;;5045597;28;20569;-34
2022/03/29 06:28:17;;;;;;;7.93;5.30;;;11.70;42.30;;;;;;5054614;28;20185;-34
2022/03/29 06:30:44;;;;;;;10.50;4.90;;;11.60;42.90;;;;;;5054371;28;20166;-34
2022/03/29 06:33:10;;;;;;;11.77;5.53;;;11.60;42.50;;;;;;5054333;28;20270;-34
2022/03/29 06:35:38;;;;;;;9.13;4.90;;;11.60;43.60;;;;;;5054379;28;20185;-34
2022/03/29 06:38:05;;;;;;;11.63;6.15;;;11.60;42.90;;;;;;5054713;28;20177;-34
2022/03/29 06:40:31;;;;;;;10.02;5.50;;;11.60;43.00;;;;;;5054471;28;20177;-33
2022/03/29 06:43:00;;;;;;;6.72;3.97;;;11.60;42.10;;;;;;5054357;28;20267;-34
2022/03/29 06:45:27;;;;;;;9.77;5.30;;;11.70;42.20;;;;;;5054126;28;20730;-34
2022/03/29 06:47:53;;;;;;;12.32;6.88;;;11.70;42.50;;;;;;5054231;28;20180;-34
2022/03/29 06:50:19;;;;;;;11.40;5.55;;;11.90;42.00;;;;;;5053939;28;20652;-34
2022/03/29 06:52:46;;;;;;;11.38;6.50;;;11.90;41.90;;;;;;5052897;28;20201;-34
2022/03/29 06:55:14;;;;;;;12.20;5.78;;;11.90;41.70;;;;;;5054140;28;20695;-34
2022/03/29 06:57:40;;;;;;;8.80;6.03;;;12.00;41.30;;;;;;5045573;28;20218;-34
2022/03/29 07:00:12;;;;;;;12.80;7.73;;;12.00;41.70;;;;;;5053701;28;20417;-34
2022/03/29 07:02:38;;;;;;;12.00;5.97;;;12.10;41.40;;;;;;5054276;28;20227;-34
2022/03/29 07:05:04;;;;;;;13.50;6.00;;;12.10;41.50;;;;;;5054046;28;20177;-34
2022/03/29 07:07:30;;;;;;;17.48;7.78;;;12.10;42.10;;;;;;5053883;28;20415;-34
2022/03/29 07:13:01;;;;;;;15.98;6.25;;;12.10;41.40;;;;;;5052328;28;20242;-34
2022/03/29 07:15:27;;;;;;;15.70;8.25;;;12.20;41.30;;;;;;5049472;28;20181;-34
2022/03/29 07:17:54;;;;;;;12.82;5.63;;;12.20;41.30;;;;;;5053709;28;20197;-34
2022/03/29 07:20:21;;;;;;;8.73;5.70;;;12.10;41.20;;;;;;5052077;28;20637;-34
2022/03/29 07:22:48;;;;;;;13.15;7.43;;;12.20;41.20;;;;;;5053700;28;20185;-34
2022/03/29 07:25:16;;;;;;;13.40;6.40;;;12.10;41.40;;;;;;5053716;28;20177;-34
2022/03/29 07:27:42;;;;;;;16.50;8.10;;;12.10;42.20;;;;;;5053380;28;20619;-31
2022/03/29 07:30:10;;;;;;;12.60;6.43;;;12.00;41.90;;;;;;5053252;28;20181;-31
2022/03/29 07:32:59;;;;;;;11.40;6.85;;;12.10;41.50;;;;;;5053427;28;20200;-34
2022/03/29 07:35:28;;;;;;;14.43;7.15;;;12.20;41.80;;;;;;5053601;28;20173;-34
2022/03/29 07:37:55;;;;;;;15.75;7.68;;;12.20;41.60;;;;;;5053663;28;20196;-34
2022/03/29 07:40:24;;;;;;;12.65;6.60;;;12.10;41.20;;;;;;5053247;28;20181;-34
2022/03/29 07:42:50;;;;;;;15.88;6.90;;;12.10;40.90;;;;;;5053360;28;20672;-31
2022/03/29 07:45:17;;;;;;;13.35;8.52;;;12.10;41.20;;;;;;5053215;28;20178;-31
2022/03/29 07:47:43;;;;;;;15.73;8.88;;;12.10;41.50;;;;;;5053262;28;20189;-31
2022/03/29 07:50:11;;;;;;;10.23;6.35;;;12.10;41.60;;;;;;5052737;28;20532;-34
2022/03/29 07:52:40;;;;;;;19.63;8.77;;;12.10;41.20;;;;;;5053178;28;20212;-34
2022/03/29 07:55:08;;;;;;;16.38;7.18;;;12.20;41.00;;;;;;5053262;28;20173;-34
2022/03/29 07:57:34;;;;;;;11.95;6.57;;;12.30;41.10;;;;;;5053158;28;20185;-33
2022/03/29 08:00:31;;;;;;;13.25;8.43;;;12.30;40.90;;;;;;5052653;28;20208;-34
2022/03/29 08:02:47;;;;;;;16.17;6.90;;;12.30;40.70;;;;;;5052695;28;20193;-31
2022/03/29 08:05:13;;;;;;;13.60;6.53;;;12.30;40.60;;;;;;5052822;28;20182;-34
2022/03/29 08:07:41;;;;;;;13.63;7.93;;;12.30;40.60;;;;;;5052897;28;20197;-33
2022/03/29 08:10:07;;;;;;;13.23;7.47;;;12.30;40.60;;;;;;5052108;28;20724;-31
2022/03/29 08:12:34;;;;;;;13.43;7.30;;;12.40;40.80;;;;;;5052097;28;20213;-31
2022/03/29 08:15:00;;;;;;;24.83;8.20;;;12.40;40.20;;;;;;5044701;28;20174;-31
2022/03/29 08:17:26;;;;;;;16.83;8.47;;;12.40;40.50;;;;;;5052825;28;20197;-31
2022/03/29 08:19:52;;;;;;;14.80;6.55;;;12.40;40.20;;;;;;5052605;28;20360;-32
2022/03/29 08:22:18;;;;;;;19.60;7.85;;;12.50;40.20;;;;;;5052822;28;20533;-32
2022/03/29 08:24:44;;;;;;;14.10;7.03;;;12.50;39.90;;;;;;5052496;28;20170;-32
2022/03/29 08:27:10;;;;;;;17.43;7.27;;;12.60;40.20;;;;;;5052302;28;20208;-32
2022/03/29 08:29:37;;;;;;;12.70;8.00;;;12.60;40.00;;;;;;5052094;28;20708;-32
2022/03/29 08:32:04;;;;;;;12.23;7.22;;;12.60;39.90;;;;;;5052265;28;20680;-32
2022/03/29 08:34:30;;;;;;;12.63;5.97;;;12.60;40.00;;;;;;5052416;28;20175;-31
2022/03/29 08:36:56;;;;;;;20.15;8.60;;;12.70;39.90;;;;;;5052710;28;20195;-31
2022/03/29 08:39:22;;;;;;;15.27;8.70;;;12.70;39.70;;;;;;5052063;28;20165;-32
2022/03/29 08:42:01;;;;;;;12.30;7.20;;;12.80;39.70;;;;;;5051493;28;20195;-31
2022/03/29 08:44:29;;;;;;;10.90;7.63;;;12.80;39.80;;;;;;5042794;28;20177;-32
2022/03/29 08:46:55;;;;;;;13.50;6.55;;;12.80;39.70;;;;;;5043523;28;20558;-31
2022/03/29 08:49:22;;;;;;;11.60;6.40;;;12.80;39.50;;;;;;5051786;28;20243;-31
2022/03/29 08:51:49;;;;;;;8.95;6.97;;;12.90;39.50;;;;;;5052038;28;20592;-31
2022/03/29 08:54:15;;;;;;;12.75;8.43;;;12.90;39.80;;;;;;5052364;28;20268;-31
2022/03/29 08:56:41;;;;;;;13.65;7.15;;;12.90;39.80;;;;;;5051945;28;20192;-31
2022/03/29 08:59:07;;;;;;;12.90;7.85;;;12.90;39.80;;;;;;5051703;28;20171;-31
2022/03/29 09:01:33;;;;;;;11.82;7.25;;;12.90;39.70;;;;;;5052020;28;20169;-33
2022/03/29 09:04:05;;;;;;;15.17;7.87;;;12.90;39.70;;;;;;5052102;28;20573;-34
2022/03/29 09:06:31;;;;;;;16.92;6.43;;;12.90;39.60;;;;;;5051820;28;20215;-34
2022/03/29 09:08:57;;;;;;;9.73;5.80;;;13.00;39.50;;;;;;5051839;28;20182;-32
2022/03/29 09:11:23;;;;;;;12.00;6.73;;;13.00;39.70;;;;;;5051988;28;20177;-31
2022/03/29 09:14:09;;;;;;;11.97;6.53;;;13.00;39.50;;;;;;5052276;28;20491;-31
2022/03/29 09:16:36;;;;;;;9.02;6.03;;;12.90;39.50;;;;;;5051486;28;20448;-31
2022/03/29 09:19:02;;;;;;;14.18;7.63;;;12.90;39.60;;;;;;5051746;28;20173;-32
2022/03/29 09:21:28;;;;;;;27.25;8.98;;;13.00;39.80;;;;;;5052028;28;20169;-31
2022/03/29 09:24:06;;;;;;;12.07;6.77;;;13.00;39.70;;;;;;5054718;28;20234;-31
2022/03/29 09:26:32;;;;;;;14.93;6.40;;;13.10;40.00;;;;;;5055276;28;20212;-31
2022/03/29 09:28:58;;;;;;;13.95;9.93;;;13.10;39.50;;;;;;5055424;28;20184;-31
2022/03/29 09:31:27;;;;;;;12.77;7.63;;;13.10;39.60;;;;;;5055581;28;20180;-34
2022/03/29 09:34:10;;;;;;;14.25;7.53;;;13.10;39.50;;;;;;5055606;28;20569;-34
2022/03/29 09:36:44;;;;;;;12.68;7.25;;;13.10;39.30;;;;;;5054326;28;20196;-34
2022/03/29 09:39:42;;;;;;;14.55;7.85;;;13.00;39.20;;;;;;5055387;28;20168;-34
2022/03/29 09:42:17;;;;;;;12.93;6.50;;;13.00;39.40;;;;;;5055522;28;20165;-34
2022/03/29 09:44:48;;;;;;;13.15;5.20;;;13.00;39.70;;;;;;5055683;28;20234;-34
2022/03/29 09:47:22;;;;;;;16.75;6.05;;;13.00;39.70;;;;;;5055342;28;20239;-34
2022/03/29 09:50:06;;;;;;;11.15;8.15;;;13.10;39.60;;;;;;5055292;28;20231;-34
2022/03/29 09:52:34;;;;;;;15.63;8.05;;;13.00;39.50;;;;;;5055161;28;20197;-34
2022/03/29 09:55:13;;;;;;;15.50;7.40;;;13.10;39.80;;;;;;5055537;28;20256;-34
2022/03/29 09:57:54;;;;;;;14.95;6.63;;;13.10;39.80;;;;;;5055564;28;20251;-34
2022/03/29 10:00:39;;;;;;;9.65;6.20;;;13.20;39.60;;;;;;5055260;28;20203;-32
2022/03/29 10:03:09;;;;;;;25.67;8.98;;;13.10;39.50;;;;;;5055167;28;20681;-32
2022/03/29 10:05:39;;;;;;;18.90;8.70;;;13.00;39.80;;;;;;5054911;28;20311;-33
2022/03/29 10:10:54;;;;;;;14.38;8.30;;;12.90;40.10;;;;;;5055116;28;20208;-33
2022/03/29 10:13:24;;;;;;;17.48;10.23;;;13.00;39.90;;;;;;5054906;28;20246;-33
2022/03/29 10:15:51;;;;;;;13.50;8.13;;;12.90;39.70;;;;;;5051919;28;20247;-33
2022/03/29 10:18:18;;;;;;;14.27;7.43;;;12.90;39.70;;;;;;5049519;28;20252;-33
2022/03/29 10:20:44;;;;;;;13.52;8.32;;;13.00;39.70;;;;;;5054934;28;20180;-33
2022/03/29 10:23:14;;;;;;;13.13;6.82;;;13.00;39.50;;;;;;5054812;28;20308;-33
2022/03/29 10:25:41;;;;;;;13.20;7.95;;;13.10;39.40;;;;;;5054643;28;20200;-31
2022/03/29 10:28:08;;;;;;;16.13;8.60;;;13.20;39.30;;;;;;5054872;28;20181;-32
2022/03/29 10:30:42;;;;;;;11.88;5.57;;;13.20;39.30;;;;;;5054498;28;20181;-32
2022/03/29 10:33:27;;;;;;;11.57;6.82;;;13.20;39.00;;;;;;5054111;28;20700;-32
2022/03/29 10:36:06;;;;;;;20.45;7.75;;;13.20;39.10;;;;;;5054471;28;20197;-32
2022/03/29 10:38:46;;;;;;;19.73;6.53;;;13.30;39.10;;;;;;5055006;28;20656;-32
2022/03/29 10:41:30;;;;;;;12.68;6.43;;;13.40;39.00;;;;;;5054347;28;20189;-32
2022/03/29 10:44:15;;;;;;;9.32;5.35;;;13.50;38.50;;;;;;5055213;28;20177;-32
2022/03/29 10:46:45;;;;;;;11.57;5.55;;;13.40;38.60;;;;;;5054597;28;20207;-32
2022/03/29 10:49:23;;;;;;;11.10;7.40;;;13.40;38.50;;;;;;5053980;28;20204;-32
2022/03/29 10:52:05;;;;;;;19.35;7.47;;;13.50;38.10;;;;;;5054950;28;20181;-32
2022/03/29 10:54:42;;;;;;;11.77;7.30;;;13.60;38.10;;;;;;5054275;28;20173;-32
2022/03/29 10:57:25;;;;;;;18.60;7.80;;;13.80;38.10;;;;;;5054025;28;20276;-32
2022/03/29 11:00:12;;;;;;;11.48;6.25;;;14.00;37.60;;;;;;5053791;28;20561;-32
2022/03/29 11:03:20;;;;;;;8.90;5.25;;;14.10;37.60;;;;;;5053924;28;20175;-33
2022/03/29 11:06:10;;;;;;;10.02;6.97;;;14.10;36.80;;;;;;5053944;28;20284;-32
2022/03/29 11:08:41;;;;;;;15.88;7.43;;;14.20;35.90;;;;;;5054020;28;20230;-32
2022/03/29 11:11:27;;;;;;;10.60;6.63;;;14.00;36.00;;;;;;5053696;28;20615;-32
2022/03/29 11:13:53;;;;;;;10.40;6.80;;;13.90;36.20;;;;;;5053698;28;20208;-32
2022/03/29 11:16:37;;;;;;;16.23;8.43;;;13.90;36.80;;;;;;5053625;28;20197;-31
2022/03/29 11:19:02;;;;;;;9.63;6.43;;;13.90;36.40;;;;;;5053525;28;20162;-32
2022/03/29 11:21:34;;;;;;;9.20;5.10;;;13.80;36.20;;;;;;5053921;28;20177;-32
2022/03/29 11:24:01;;;;;;;14.32;7.57;;;13.60;37.10;;;;;;5053993;28;20303;-32
2022/03/29 11:26:27;;;;;;;11.80;7.55;;;13.50;37.10;;;;;;5053348;28;20221;-32
2022/03/29 11:28:56;;;;;;;16.35;9.02;;;13.50;37.90;;;;;;5053343;28;20181;-32
2022/03/29 11:31:24;;;;;;;12.93;7.32;;;13.70;37.60;;;;;;5053917;28;20181;-32
2022/03/29 11:33:51;;;;;;;11.90;7.13;;;13.80;37.10;;;;;;5053745;28;20552;-32
2022/03/29 11:36:20;;;;;;;17.35;8.68;;;14.00;37.20;;;;;;5053718;28;20200;-32
2022/03/29 11:38:46;;;;;;;13.88;7.35;;;14.20;36.90;;;;;;5053103;28;20707;-32
2022/03/29 11:41:27;;;;;;;17.95;7.72;;;14.30;36.40;;;;;;5053434;28;20173;-32
2022/03/29 11:43:55;;;;;;;11.57;7.95;;;14.50;36.30;;;;;;5048991;28;20186;-32
2022/03/29 11:46:21;;;;;;;18.83;8.65;;;14.60;36.20;;;;;;5047230;28;20196;-33
2022/03/29 11:48:49;;;;;;;10.33;6.93;;;14.70;35.70;;;;;;5053188;28;20239;-33
2022/03/29 11:51:16;;;;;;;17.95;6.88;;;14.80;35.70;;;;;;5053364;28;20173;-32
2022/03/29 11:53:42;;;;;;;24.27;9.18;;;15.00;35.70;;;;;;5052025;28;20232;-32
2022/03/29 11:56:19;;;;;;;15.95;7.78;;;14.90;34.90;;;;;;5053149;28;20204;-33
2022/03/29 11:58:55;;;;;;;16.60;8.38;;;14.90;35.20;;;;;;5053115;28;20629;-33
2022/03/29 12:01:27;;;;;;;14.68;7.40;;;14.80;35.20;;;;;;5053216;28;20184;-32
2022/03/29 12:03:55;;;;;;;13.48;6.93;;;14.70;35.50;;;;;;5053293;28;20640;-32
2022/03/29 12:06:24;;;;;;;14.32;8.63;;;14.50;35.20;;;;;;5053098;28;20285;-32
2022/03/29 12:08:51;;;;;;;14.82;7.22;;;14.60;35.70;;;;;;5052672;28;20181;-32
2022/03/29 12:11:23;;;;;;;13.85;6.90;;;14.90;35.10;;;;;;5052666;28;20533;-31
2022/03/29 12:14:04;;;;;;;12.45;7.28;;;14.70;35.00;;;;;;5052867;28;20228;-32
2022/03/29 12:16:32;;;;;;;15.48;8.40;;;14.60;35.30;;;;;;5052648;28;20193;-32
2022/03/29 12:18:58;;;;;;;15.82;8.60;;;14.60;35.70;;;;;;5052255;28;20176;-32
2022/03/29 12:21:24;;;;;;;15.70;9.57;;;14.80;35.40;;;;;;5052958;28;20181;-32
2022/03/29 12:24:11;;;;;;;17.58;8.93;;;14.90;34.90;;;;;;5052473;28;20200;-32
2022/03/29 12:26:49;;;;;;;22.25;9.35;;;15.00;35.60;;;;;;5052198;28;20437;-32
2022/03/29 12:29:17;;;;;;;10.85;6.30;;;15.30;35.90;;;;;;5052231;28;20203;-32
2022/03/29 12:31:43;;;;;;;11.38;5.80;;;15.50;34.90;;;;;;5052669;28;20177;-32
2022/03/29 12:34:12;;;;;;;13.40;8.77;;;15.80;34.60;;;;;;5052560;28;20251;-32
2022/03/29 12:36:48;;;;;;;14.15;8.02;;;15.80;33.80;;;;;;5052329;28;20200;-32
2022/03/29 12:39:14;;;;;;;9.80;6.82;;;15.90;34.00;;;;;;5052186;28;20248;-32
2022/03/29 12:41:52;;;;;;;15.48;8.50;;;16.00;34.20;;;;;;5052278;28;20207;-32
2022/03/29 12:44:28;;;;;;;16.00;9.15;;;16.30;34.30;;;;;;5052400;28;20180;-32
2022/03/29 12:46:55;;;;;;;17.38;8.77;;;16.70;34.00;;;;;;5052348;28;20204;-32
2022/03/29 12:49:21;;;;;;;15.13;8.05;;;17.10;33.00;;;;;;5052279;28;20625;-32
2022/03/29 12:52:11;;;;;;;20.65;9.40;;;17.20;30.40;;;;;;5052248;28;20272;-32
2022/03/29 12:54:48;;;;;;;12.85;8.75;;;17.40;32.20;;;;;;5052526;28;20177;-32
2022/03/29 12:57:21;;;;;;;17.10;9.65;;;17.50;32.00;;;;;;5052626;28;20196;-33
2022/03/29 12:59:49;;;;;;;15.98;8.27;;;17.80;31.70;;;;;;5052627;28;20193;-33